sensor_id;sensor_type;location;lat;lon;timestamp;P1;durP1;ratioP1;P2;durP2;ratioP2
21677;SDS011;11000;50.360;7.582;2022-08-02T00:01:49;3.53;;;3.23;;
21677;SDS011;11000;50.360;7.582;2022-08-02T00:04:09;4.03;;;3.33;;
21677;SDS011;11000;50.360;7.582;2022-08-02T00:06:30;6.87;;;3.10;;
21677;SDS011;11000;50.360;7.582;2022-08-02T00:08:51;3.03;;;2.83;;
21677;SDS011;11000;50.360;7.582;2022-08-02T00:11:12;3.70;;;3.40;;
21677;SDS011;11000;50.360;7.582;2022-08-02T00:13:33;3.40;;;3.10;;
21677;SDS011;11000;50.360;7.582;2022-08-02T00:15:54;4.20;;;3.80;;
21677;SDS011;11000;50.360;7.582;2022-08-02T00:18:14;3.83;;;3.53;;
21677;SDS011;11000;50.360;7.582;2022-08-02T00:20:35;5.03;;;3.63;;
21677;SDS011;11000;50.360;7.582;2022-08-02T00:22:55;3.47;;;3.27;;
21677;SDS011;11000;50.360;7.582;2022-08-02T00:25:16;4.13;;;3.67;;
21677;SDS011;11000;50.360;7.582;2022-08-02T00:27:37;4.10;;;3.70;;
21677;SDS011;11000;50.360;7.582;2022-08-02T00:29:57;3.90;;;3.60;;
21677;SDS011;11000;50.360;7.582;2022-08-02T00:32:18;6.03;;;3.40;;
21677;SDS011;11000;50.360;7.582;2022-08-02T00:34:38;3.53;;;3.33;;
21677;SDS011;11000;50.360;7.582;2022-08-02T00:36:59;3.93;;;3.63;;
21677;SDS011;11000;50.360;7.582;2022-08-02T00:39:19;4.27;;;3.53;;
21677;SDS011;11000;50.360;7.582;2022-08-02T00:41:44;4.17;;;3.50;;
21677;SDS011;11000;50.360;7.582;2022-08-02T00:44:07;3.43;;;3.23;;
21677;SDS011;11000;50.360;7.582;2022-08-02T00:46:27;3.43;;;3.20;;
21677;SDS011;11000;50.360;7.582;2022-08-02T00:48:48;3.73;;;3.43;;
21677;SDS011;11000;50.360;7.582;2022-08-02T00:51:09;5.37;;;3.73;;
21677;SDS011;11000;50.360;7.582;2022-08-02T00:53:31;4.50;;;3.67;;
21677;SDS011;11000;50.360;7.582;2022-08-02T00:55:51;3.90;;;3.60;;
21677;SDS011;11000;50.360;7.582;2022-08-02T00:58:12;4.00;;;3.70;;
21677;SDS011;11000;50.360;7.582;2022-08-02T01:00:33;3.60;;;3.40;;
21677;SDS011;11000;50.360;7.582;2022-08-02T01:02:53;3.70;;;3.40;;
21677;SDS011;11000;50.360;7.582;2022-08-02T01:05:14;4.17;;;3.63;;
21677;SDS011;11000;50.360;7.582;2022-08-02T01:07:35;4.00;;;3.70;;
21677;SDS011;11000;50.360;7.582;2022-08-02T01:09:56;4.63;;;4.13;;
21677;SDS011;11000;50.360;7.582;2022-08-02T01:12:17;3.90;;;3.60;;
21677;SDS011;11000;50.360;7.582;2022-08-02T01:14:38;3.73;;;3.43;;
21677;SDS011;11000;50.360;7.582;2022-08-02T01:17:02;5.37;;;3.70;;
21677;SDS011;11000;50.360;7.582;2022-08-02T01:22:19;4.17;;;3.77;;
21677;SDS011;11000;50.360;7.582;2022-08-02T01:25:10;4.07;;;3.77;;
21677;SDS011;11000;50.360;7.582;2022-08-02T01:30:29;4.03;;;3.37;;
21677;SDS011;11000;50.360;7.582;2022-08-02T01:32:54;4.17;;;3.87;;
21677;SDS011;11000;50.360;7.582;2022-08-02T01:35:21;4.13;;;3.60;;
21677;SDS011;11000;50.360;7.582;2022-08-02T01:37:48;4.47;;;3.90;;
21677;SDS011;11000;50.360;7.582;2022-08-02T01:40:16;4.33;;;4.00;;
21677;SDS011;11000;50.360;7.582;2022-08-02T01:42:45;4.17;;;3.70;;
21677;SDS011;11000;50.360;7.582;2022-08-02T01:45:08;4.90;;;4.13;;
21677;SDS011;11000;50.360;7.582;2022-08-02T01:47:32;4.40;;;4.00;;
21677;SDS011;11000;50.360;7.582;2022-08-02T01:49:56;3.83;;;3.53;;
21677;SDS011;11000;50.360;7.582;2022-08-02T01:52:19;4.47;;;4.07;;
21677;SDS011;11000;50.360;7.582;2022-08-02T01:54:42;4.70;;;4.30;;
21677;SDS011;11000;50.360;7.582;2022-08-02T01:57:05;4.17;;;3.77;;
21677;SDS011;11000;50.360;7.582;2022-08-02T01:59:29;4.63;;;4.23;;
21677;SDS011;11000;50.360;7.582;2022-08-02T02:01:51;5.00;;;4.47;;
21677;SDS011;11000;50.360;7.582;2022-08-02T02:04:14;6.57;;;4.20;;
21677;SDS011;11000;50.360;7.582;2022-08-02T02:06:36;5.37;;;4.97;;
21677;SDS011;11000;50.360;7.582;2022-08-02T02:08:58;4.30;;;3.90;;
21677;SDS011;11000;50.360;7.582;2022-08-02T02:11:20;4.13;;;3.80;;
21677;SDS011;11000;50.360;7.582;2022-08-02T02:13:40;4.30;;;4.00;;
21677;SDS011;11000;50.360;7.582;2022-08-02T02:16:02;4.23;;;3.83;;
21677;SDS011;11000;50.360;7.582;2022-08-02T02:18:25;4.80;;;3.77;;
21677;SDS011;11000;50.360;7.582;2022-08-02T02:20:48;4.57;;;4.27;;
21677;SDS011;11000;50.360;7.582;2022-08-02T02:23:09;4.50;;;4.13;;
21677;SDS011;11000;50.360;7.582;2022-08-02T02:25:31;5.87;;;3.93;;
21677;SDS011;11000;50.360;7.582;2022-08-02T02:28:02;5.10;;;3.90;;
21677;SDS011;11000;50.360;7.582;2022-08-02T02:30:26;4.70;;;4.30;;
21677;SDS011;11000;50.360;7.582;2022-08-02T02:32:48;4.30;;;4.00;;
21677;SDS011;11000;50.360;7.582;2022-08-02T02:35:11;4.50;;;4.07;;
21677;SDS011;11000;50.360;7.582;2022-08-02T02:37:35;4.60;;;4.20;;
21677;SDS011;11000;50.360;7.582;2022-08-02T02:39:57;4.60;;;4.20;;
21677;SDS011;11000;50.360;7.582;2022-08-02T02:42:18;5.03;;;4.53;;
21677;SDS011;11000;50.360;7.582;2022-08-02T02:44:43;4.57;;;4.17;;
21677;SDS011;11000;50.360;7.582;2022-08-02T02:47:06;4.50;;;4.10;;
21677;SDS011;11000;50.360;7.582;2022-08-02T02:49:30;4.53;;;4.13;;
21677;SDS011;11000;50.360;7.582;2022-08-02T02:51:53;4.60;;;4.20;;
21677;SDS011;11000;50.360;7.582;2022-08-02T02:54:15;5.40;;;5.00;;
21677;SDS011;11000;50.360;7.582;2022-08-02T02:56:37;7.40;;;5.10;;
21677;SDS011;11000;50.360;7.582;2022-08-02T02:59:00;4.53;;;4.13;;
21677;SDS011;11000;50.360;7.582;2022-08-02T03:01:21;4.37;;;4.07;;
21677;SDS011;11000;50.360;7.582;2022-08-02T03:03:49;4.93;;;4.53;;
21677;SDS011;11000;50.360;7.582;2022-08-02T03:06:12;5.20;;;4.80;;
21677;SDS011;11000;50.360;7.582;2022-08-02T03:08:32;5.07;;;4.60;;
21677;SDS011;11000;50.360;7.582;2022-08-02T03:10:53;5.20;;;4.27;;
21677;SDS011;11000;50.360;7.582;2022-08-02T03:13:14;5.10;;;4.70;;
21677;SDS011;11000;50.360;7.582;2022-08-02T03:15:36;4.90;;;4.40;;
21677;SDS011;11000;50.360;7.582;2022-08-02T03:17:58;5.27;;;4.87;;
21677;SDS011;11000;50.360;7.582;2022-08-02T03:20:19;4.80;;;4.30;;
21677;SDS011;11000;50.360;7.582;2022-08-02T03:22:42;5.23;;;4.73;;
21677;SDS011;11000;50.360;7.582;2022-08-02T03:25:04;4.80;;;4.40;;
21677;SDS011;11000;50.360;7.582;2022-08-02T03:27:25;5.00;;;4.60;;
21677;SDS011;11000;50.360;7.582;2022-08-02T03:29:45;4.70;;;4.20;;
21677;SDS011;11000;50.360;7.582;2022-08-02T03:32:06;5.53;;;4.70;;
21677;SDS011;11000;50.360;7.582;2022-08-02T03:34:27;5.27;;;4.80;;
21677;SDS011;11000;50.360;7.582;2022-08-02T03:36:49;4.70;;;4.20;;
21677;SDS011;11000;50.360;7.582;2022-08-02T03:39:14;5.63;;;4.77;;
21677;SDS011;11000;50.360;7.582;2022-08-02T03:41:35;5.70;;;5.10;;
21677;SDS011;11000;50.360;7.582;2022-08-02T03:43:57;5.20;;;4.70;;
21677;SDS011;11000;50.360;7.582;2022-08-02T03:46:22;5.70;;;4.47;;
21677;SDS011;11000;50.360;7.582;2022-08-02T03:48:45;4.93;;;4.43;;
21677;SDS011;11000;50.360;7.582;2022-08-02T03:51:08;5.60;;;5.10;;
21677;SDS011;11000;50.360;7.582;2022-08-02T03:53:29;5.53;;;4.77;;
21677;SDS011;11000;50.360;7.582;2022-08-02T03:55:51;5.50;;;5.00;;
21677;SDS011;11000;50.360;7.582;2022-08-02T03:58:16;5.87;;;5.37;;
21677;SDS011;11000;50.360;7.582;2022-08-02T04:00:41;7.37;;;5.00;;
21677;SDS011;11000;50.360;7.582;2022-08-02T04:03:02;4.90;;;4.53;;
21677;SDS011;11000;50.360;7.582;2022-08-02T04:05:23;5.07;;;4.67;;
21677;SDS011;11000;50.360;7.582;2022-08-02T04:07:44;5.23;;;4.83;;
21677;SDS011;11000;50.360;7.582;2022-08-02T04:10:07;5.27;;;4.87;;
21677;SDS011;11000;50.360;7.582;2022-08-02T04:12:28;6.50;;;4.90;;
21677;SDS011;11000;50.360;7.582;2022-08-02T04:14:48;8.50;;;5.20;;
21677;SDS011;11000;50.360;7.582;2022-08-02T04:17:10;6.07;;;5.50;;
21677;SDS011;11000;50.360;7.582;2022-08-02T04:19:34;5.70;;;5.30;;
21677;SDS011;11000;50.360;7.582;2022-08-02T04:22:02;6.23;;;4.93;;
21677;SDS011;11000;50.360;7.582;2022-08-02T04:24:28;5.60;;;5.10;;
21677;SDS011;11000;50.360;7.582;2022-08-02T04:26:56;5.87;;;5.03;;
21677;SDS011;11000;50.360;7.582;2022-08-02T04:29:18;5.00;;;4.60;;
21677;SDS011;11000;50.360;7.582;2022-08-02T04:31:38;6.73;;;5.07;;
21677;SDS011;11000;50.360;7.582;2022-08-02T04:34:01;5.93;;;5.07;;
21677;SDS011;11000;50.360;7.582;2022-08-02T04:36:22;7.83;;;6.00;;
21677;SDS011;11000;50.360;7.582;2022-08-02T04:38:43;6.33;;;5.37;;
21677;SDS011;11000;50.360;7.582;2022-08-02T04:41:05;5.67;;;5.03;;
21677;SDS011;11000;50.360;7.582;2022-08-02T04:43:25;5.90;;;5.40;;
21677;SDS011;11000;50.360;7.582;2022-08-02T04:45:50;5.63;;;5.13;;
21677;SDS011;11000;50.360;7.582;2022-08-02T04:48:12;5.87;;;5.37;;
21677;SDS011;11000;50.360;7.582;2022-08-02T04:50:33;5.23;;;4.63;;
21677;SDS011;11000;50.360;7.582;2022-08-02T04:52:53;4.97;;;4.53;;
21677;SDS011;11000;50.360;7.582;2022-08-02T04:55:14;5.30;;;4.80;;
21677;SDS011;11000;50.360;7.582;2022-08-02T04:57:34;5.77;;;5.27;;
21677;SDS011;11000;50.360;7.582;2022-08-02T05:00:13;5.80;;;4.97;;
21677;SDS011;11000;50.360;7.582;2022-08-02T05:02:34;7.43;;;5.70;;
21677;SDS011;11000;50.360;7.582;2022-08-02T05:04:55;6.53;;;5.40;;
21677;SDS011;11000;50.360;7.582;2022-08-02T05:07:15;5.73;;;5.10;;
21677;SDS011;11000;50.360;7.582;2022-08-02T05:09:36;5.30;;;4.80;;
21677;SDS011;11000;50.360;7.582;2022-08-02T05:11:56;5.60;;;4.77;;
21677;SDS011;11000;50.360;7.582;2022-08-02T05:14:17;5.50;;;5.00;;
21677;SDS011;11000;50.360;7.582;2022-08-02T05:16:37;5.67;;;5.20;;
21677;SDS011;11000;50.360;7.582;2022-08-02T05:18:58;6.03;;;5.43;;
21677;SDS011;11000;50.360;7.582;2022-08-02T05:21:19;5.50;;;5.10;;
21677;SDS011;11000;50.360;7.582;2022-08-02T05:23:40;7.30;;;5.43;;
21677;SDS011;11000;50.360;7.582;2022-08-02T05:26:01;5.57;;;4.93;;
21677;SDS011;11000;50.360;7.582;2022-08-02T05:28:21;5.50;;;4.90;;
21677;SDS011;11000;50.360;7.582;2022-08-02T05:30:42;5.50;;;4.40;;
21677;SDS011;11000;50.360;7.582;2022-08-02T05:33:03;5.53;;;4.90;;
21677;SDS011;11000;50.360;7.582;2022-08-02T05:35:24;5.33;;;4.90;;
21677;SDS011;11000;50.360;7.582;2022-08-02T05:37:45;5.20;;;4.80;;
21677;SDS011;11000;50.360;7.582;2022-08-02T05:40:07;5.30;;;4.90;;
21677;SDS011;11000;50.360;7.582;2022-08-02T05:42:30;5.23;;;4.77;;
21677;SDS011;11000;50.360;7.582;2022-08-02T05:44:51;5.30;;;4.80;;
21677;SDS011;11000;50.360;7.582;2022-08-02T05:47:11;5.40;;;4.83;;
21677;SDS011;11000;50.360;7.582;2022-08-02T05:49:32;4.90;;;4.50;;
21677;SDS011;11000;50.360;7.582;2022-08-02T05:57:00;5.43;;;4.70;;
21677;SDS011;11000;50.360;7.582;2022-08-02T05:59:31;5.03;;;4.50;;
21677;SDS011;11000;50.360;7.582;2022-08-02T06:01:56;5.47;;;4.83;;
21677;SDS011;11000;50.360;7.582;2022-08-02T06:04:24;5.03;;;4.10;;
21677;SDS011;11000;50.360;7.582;2022-08-02T06:06:49;4.83;;;4.33;;
21677;SDS011;11000;50.360;7.582;2022-08-02T06:09:15;4.47;;;4.13;;
21677;SDS011;11000;50.360;7.582;2022-08-02T06:11:38;4.50;;;4.20;;
21677;SDS011;11000;50.360;7.582;2022-08-02T06:14:05;4.50;;;4.03;;
21677;SDS011;11000;50.360;7.582;2022-08-02T06:16:26;4.80;;;4.40;;
21677;SDS011;11000;50.360;7.582;2022-08-02T06:18:47;4.30;;;3.90;;
21677;SDS011;11000;50.360;7.582;2022-08-02T06:21:08;5.17;;;4.13;;
21677;SDS011;11000;50.360;7.582;2022-08-02T06:23:30;4.70;;;4.30;;
21677;SDS011;11000;50.360;7.582;2022-08-02T06:25:52;4.80;;;4.40;;
21677;SDS011;11000;50.360;7.582;2022-08-02T06:28:13;4.70;;;4.30;;
21677;SDS011;11000;50.360;7.582;2022-08-02T06:30:35;4.40;;;4.00;;
21677;SDS011;11000;50.360;7.582;2022-08-02T06:32:56;5.33;;;4.83;;
21677;SDS011;11000;50.360;7.582;2022-08-02T06:35:17;4.97;;;4.53;;
21677;SDS011;11000;50.360;7.582;2022-08-02T06:37:51;5.30;;;4.80;;
21677;SDS011;11000;50.360;7.582;2022-08-02T06:45:36;5.07;;;4.67;;
21677;SDS011;11000;50.360;7.582;2022-08-02T06:47:57;5.97;;;5.00;;
21677;SDS011;11000;50.360;7.582;2022-08-02T06:50:18;5.20;;;4.80;;
21677;SDS011;11000;50.360;7.582;2022-08-02T06:52:39;5.33;;;4.93;;
21677;SDS011;11000;50.360;7.582;2022-08-02T06:55:00;6.30;;;5.20;;
21677;SDS011;11000;50.360;7.582;2022-08-02T06:57:23;5.80;;;5.20;;
21677;SDS011;11000;50.360;7.582;2022-08-02T06:59:43;6.10;;;5.50;;
21677;SDS011;11000;50.360;7.582;2022-08-02T07:02:04;5.70;;;5.10;;
21677;SDS011;11000;50.360;7.582;2022-08-02T07:04:24;5.80;;;5.30;;
21677;SDS011;11000;50.360;7.582;2022-08-02T07:06:45;6.03;;;5.50;;
21677;SDS011;11000;50.360;7.582;2022-08-02T07:09:05;5.70;;;5.17;;
21677;SDS011;11000;50.360;7.582;2022-08-02T07:11:26;5.53;;;5.03;;
21677;SDS011;11000;50.360;7.582;2022-08-02T07:13:46;5.90;;;5.37;;
21677;SDS011;11000;50.360;7.582;2022-08-02T07:16:07;5.60;;;5.10;;
21677;SDS011;11000;50.360;7.582;2022-08-02T07:18:27;5.50;;;4.83;;
21677;SDS011;11000;50.360;7.582;2022-08-02T07:20:48;6.20;;;5.53;;
21677;SDS011;11000;50.360;7.582;2022-08-02T07:23:09;6.03;;;5.30;;
21677;SDS011;11000;50.360;7.582;2022-08-02T07:25:29;5.60;;;4.73;;
21677;SDS011;11000;50.360;7.582;2022-08-02T07:27:50;5.37;;;4.70;;
21677;SDS011;11000;50.360;7.582;2022-08-02T07:30:10;6.90;;;5.00;;
21677;SDS011;11000;50.360;7.582;2022-08-02T07:32:31;7.60;;;6.20;;
21677;SDS011;11000;50.360;7.582;2022-08-02T07:34:52;4.60;;;3.93;;
21677;SDS011;11000;50.360;7.582;2022-08-02T07:37:13;4.97;;;4.47;;
21677;SDS011;11000;50.360;7.582;2022-08-02T07:39:34;5.07;;;4.33;;
21677;SDS011;11000;50.360;7.582;2022-08-02T07:41:54;6.60;;;4.67;;
21677;SDS011;11000;50.360;7.582;2022-08-02T07:44:16;5.33;;;4.67;;
21677;SDS011;11000;50.360;7.582;2022-08-02T07:46:37;7.77;;;4.83;;
21677;SDS011;11000;50.360;7.582;2022-08-02T07:48:58;4.30;;;4.00;;
21677;SDS011;11000;50.360;7.582;2022-08-02T07:51:19;5.77;;;4.10;;
21677;SDS011;11000;50.360;7.582;2022-08-02T07:53:40;4.37;;;3.97;;
21677;SDS011;11000;50.360;7.582;2022-08-02T07:56:00;6.70;;;3.90;;
21677;SDS011;11000;50.360;7.582;2022-08-02T07:58:21;4.63;;;3.90;;
21677;SDS011;11000;50.360;7.582;2022-08-02T08:00:42;4.10;;;3.50;;
21677;SDS011;11000;50.360;7.582;2022-08-02T08:03:02;4.97;;;3.60;;
21677;SDS011;11000;50.360;7.582;2022-08-02T08:05:23;4.93;;;4.00;;
21677;SDS011;11000;50.360;7.582;2022-08-02T08:07:43;5.83;;;3.97;;
21677;SDS011;11000;50.360;7.582;2022-08-02T08:10:04;5.80;;;3.70;;
21677;SDS011;11000;50.360;7.582;2022-08-02T08:12:26;5.17;;;3.73;;
21677;SDS011;11000;50.360;7.582;2022-08-02T08:14:47;3.57;;;3.27;;
21677;SDS011;11000;50.360;7.582;2022-08-02T08:17:07;3.60;;;3.30;;
21677;SDS011;11000;50.360;7.582;2022-08-02T08:19:31;3.57;;;3.27;;
21677;SDS011;11000;50.360;7.582;2022-08-02T08:21:51;3.30;;;3.00;;
21677;SDS011;11000;50.360;7.582;2022-08-02T08:24:12;4.20;;;3.40;;
21677;SDS011;11000;50.360;7.582;2022-08-02T08:26:32;3.53;;;2.93;;
21677;SDS011;11000;50.360;7.582;2022-08-02T08:28:53;3.40;;;3.10;;
21677;SDS011;11000;50.360;7.582;2022-08-02T08:31:13;4.10;;;2.90;;
21677;SDS011;11000;50.360;7.582;2022-08-02T08:33:34;4.30;;;3.40;;
21677;SDS011;11000;50.360;7.582;2022-08-02T08:35:55;3.20;;;2.80;;
21677;SDS011;11000;50.360;7.582;2022-08-02T08:38:15;3.30;;;2.33;;
21677;SDS011;11000;50.360;7.582;2022-08-02T08:40:36;2.50;;;2.27;;
21677;SDS011;11000;50.360;7.582;2022-08-02T08:42:56;3.63;;;2.30;;
21677;SDS011;11000;50.360;7.582;2022-08-02T08:45:17;3.00;;;2.47;;
21677;SDS011;11000;50.360;7.582;2022-08-02T08:47:38;5.70;;;3.20;;
21677;SDS011;11000;50.360;7.582;2022-08-02T08:50:02;5.47;;;2.10;;
21677;SDS011;11000;50.360;7.582;2022-08-02T08:52:28;2.40;;;2.20;;
21677;SDS011;11000;50.360;7.582;2022-08-02T08:54:50;2.30;;;2.10;;
21677;SDS011;11000;50.360;7.582;2022-08-02T08:57:11;3.37;;;2.43;;
21677;SDS011;11000;50.360;7.582;2022-08-02T08:59:32;4.37;;;2.30;;
21677;SDS011;11000;50.360;7.582;2022-08-02T09:01:53;3.87;;;1.67;;
21677;SDS011;11000;50.360;7.582;2022-08-02T09:04:16;5.23;;;2.10;;
21677;SDS011;11000;50.360;7.582;2022-08-02T09:06:38;2.37;;;2.00;;
21677;SDS011;11000;50.360;7.582;2022-08-02T09:08:59;4.37;;;2.07;;
21677;SDS011;11000;50.360;7.582;2022-08-02T09:11:23;1.77;;;1.60;;
21677;SDS011;11000;50.360;7.582;2022-08-02T09:13:55;2.50;;;1.50;;
21677;SDS011;11000;50.360;7.582;2022-08-02T09:16:27;1.77;;;1.30;;
21677;SDS011;11000;50.360;7.582;2022-08-02T09:18:52;1.53;;;1.43;;
21677;SDS011;11000;50.360;7.582;2022-08-02T09:21:15;1.97;;;1.10;;
21677;SDS011;11000;50.360;7.582;2022-08-02T09:23:40;1.47;;;1.37;;
21677;SDS011;11000;50.360;7.582;2022-08-02T09:26:09;1.17;;;1.07;;
21677;SDS011;11000;50.360;7.582;2022-08-02T09:28:32;2.03;;;1.37;;
21677;SDS011;11000;50.360;7.582;2022-08-02T09:33:30;2.80;;;1.40;;
21677;SDS011;11000;50.360;7.582;2022-08-02T09:35:58;1.70;;;0.90;;
21677;SDS011;11000;50.360;7.582;2022-08-02T09:38:32;1.10;;;1.00;;
21677;SDS011;11000;50.360;7.582;2022-08-02T09:40:54;2.30;;;1.23;;
21677;SDS011;11000;50.360;7.582;2022-08-02T09:43:15;1.73;;;1.07;;
21677;SDS011;11000;50.360;7.582;2022-08-02T09:45:36;1.10;;;1.10;;
21677;SDS011;11000;50.360;7.582;2022-08-02T09:47:56;1.80;;;0.73;;
21677;SDS011;11000;50.360;7.582;2022-08-02T09:50:17;0.97;;;0.87;;
21677;SDS011;11000;50.360;7.582;2022-08-02T09:52:37;1.10;;;0.90;;
21677;SDS011;11000;50.360;7.582;2022-08-02T09:55:04;1.63;;;0.90;;
21677;SDS011;11000;50.360;7.582;2022-08-02T09:57:28;1.23;;;1.00;;
21677;SDS011;11000;50.360;7.582;2022-08-02T09:59:55;1.40;;;0.80;;
21677;SDS011;11000;50.360;7.582;2022-08-02T10:02:16;1.10;;;1.10;;
21677;SDS011;11000;50.360;7.582;2022-08-02T10:04:37;3.17;;;0.97;;
21677;SDS011;11000;50.360;7.582;2022-08-02T10:06:57;3.50;;;0.90;;
21677;SDS011;11000;50.360;7.582;2022-08-02T10:09:19;2.27;;;1.00;;
21677;SDS011;11000;50.360;7.582;2022-08-02T10:11:40;0.77;;;0.77;;
21677;SDS011;11000;50.360;7.582;2022-08-02T10:14:01;1.63;;;1.10;;
21677;SDS011;11000;50.360;7.582;2022-08-02T10:16:24;1.10;;;1.03;;
21677;SDS011;11000;50.360;7.582;2022-08-02T10:18:45;1.13;;;1.03;;
21677;SDS011;11000;50.360;7.582;2022-08-02T10:21:06;0.90;;;0.90;;
21677;SDS011;11000;50.360;7.582;2022-08-02T10:23:32;1.13;;;0.90;;
21677;SDS011;11000;50.360;7.582;2022-08-02T10:25:55;1.10;;;1.00;;
21677;SDS011;11000;50.360;7.582;2022-08-02T10:28:16;0.77;;;0.77;;
21677;SDS011;11000;50.360;7.582;2022-08-02T10:30:39;1.70;;;0.93;;
21677;SDS011;11000;50.360;7.582;2022-08-02T10:33:02;1.83;;;1.00;;
21677;SDS011;11000;50.360;7.582;2022-08-02T10:35:24;1.90;;;1.13;;
21677;SDS011;11000;50.360;7.582;2022-08-02T10:37:45;1.80;;;1.07;;
21677;SDS011;11000;50.360;7.582;2022-08-02T10:40:09;1.00;;;0.83;;
21677;SDS011;11000;50.360;7.582;2022-08-02T10:42:43;1.30;;;1.20;;
21677;SDS011;11000;50.360;7.582;2022-08-02T10:45:10;2.33;;;0.98;;
21677;SDS011;11000;50.360;7.582;2022-08-02T10:47:33;1.08;;;1.00;;
21677;SDS011;11000;50.360;7.582;2022-08-02T10:49:55;1.20;;;1.05;;
21677;SDS011;11000;50.360;7.582;2022-08-02T10:52:17;1.80;;;1.05;;
21677;SDS011;11000;50.360;7.582;2022-08-02T10:54:42;1.58;;;1.08;;
21677;SDS011;11000;50.360;7.582;2022-08-02T10:57:30;2.88;;;1.13;;
21677;SDS011;11000;50.360;7.582;2022-08-02T11:00:09;1.58;;;1.10;;
21677;SDS011;11000;50.360;7.582;2022-08-02T11:02:51;1.00;;;1.00;;
21677;SDS011;11000;50.360;7.582;2022-08-02T11:05:16;1.40;;;1.30;;
21677;SDS011;11000;50.360;7.582;2022-08-02T11:07:44;2.90;;;1.33;;
21677;SDS011;11000;50.360;7.582;2022-08-02T11:12:58;1.17;;;1.08;;
21677;SDS011;11000;50.360;7.582;2022-08-02T11:15:25;1.25;;;1.20;;
21677;SDS011;11000;50.360;7.582;2022-08-02T11:17:52;3.72;;;1.13;;
21677;SDS011;11000;50.360;7.582;2022-08-02T11:20:15;1.48;;;1.33;;
21677;SDS011;11000;50.360;7.582;2022-08-02T11:22:40;1.20;;;1.05;;
21677;SDS011;11000;50.360;7.582;2022-08-02T11:27:40;1.00;;;1.00;;
21677;SDS011;11000;50.360;7.582;2022-08-02T11:30:02;1.10;;;1.00;;
21677;SDS011;11000;50.360;7.582;2022-08-02T11:32:31;2.58;;;1.00;;
21677;SDS011;11000;50.360;7.582;2022-08-02T11:34:55;2.63;;;1.20;;
21677;SDS011;11000;50.360;7.582;2022-08-02T11:37:35;1.63;;;0.97;;
21677;SDS011;11000;50.360;7.582;2022-08-02T11:40:04;1.77;;;1.07;;
21677;SDS011;11000;50.360;7.582;2022-08-02T11:42:37;1.75;;;0.90;;
21677;SDS011;11000;50.360;7.582;2022-08-02T11:44:58;1.20;;;1.10;;
21677;SDS011;11000;50.360;7.582;2022-08-02T11:47:19;1.73;;;1.25;;
21677;SDS011;11000;50.360;7.582;2022-08-02T11:49:40;1.15;;;0.95;;
21677;SDS011;11000;50.360;7.582;2022-08-02T11:52:02;1.73;;;1.20;;
21677;SDS011;11000;50.360;7.582;2022-08-02T11:54:25;2.88;;;1.20;;
21677;SDS011;11000;50.360;7.582;2022-08-02T11:56:50;0.82;;;0.82;;
21677;SDS011;11000;50.360;7.582;2022-08-02T11:59:11;0.90;;;0.90;;
21677;SDS011;11000;50.360;7.582;2022-08-02T12:01:33;0.90;;;0.90;;
21677;SDS011;11000;50.360;7.582;2022-08-02T12:03:55;4.53;;;1.40;;
21677;SDS011;11000;50.360;7.582;2022-08-02T12:06:19;1.83;;;1.27;;
21677;SDS011;11000;50.360;7.582;2022-08-02T12:08:40;1.30;;;1.20;;
21677;SDS011;11000;50.360;7.582;2022-08-02T12:11:01;3.90;;;1.35;;
21677;SDS011;11000;50.360;7.582;2022-08-02T12:13:21;2.60;;;0.98;;
21677;SDS011;11000;50.360;7.582;2022-08-02T12:15:43;1.40;;;1.00;;
21677;SDS011;11000;50.360;7.582;2022-08-02T12:18:08;1.63;;;1.20;;
21677;SDS011;11000;50.360;7.582;2022-08-02T12:20:51;1.67;;;1.10;;
21677;SDS011;11000;50.360;7.582;2022-08-02T12:23:11;2.15;;;1.10;;
21677;SDS011;11000;50.360;7.582;2022-08-02T12:25:32;1.55;;;1.33;;
21677;SDS011;11000;50.360;7.582;2022-08-02T12:27:53;1.30;;;0.93;;
21677;SDS011;11000;50.360;7.582;2022-08-02T12:30:51;4.25;;;1.02;;
21677;SDS011;11000;50.360;7.582;2022-08-02T12:33:13;1.63;;;0.95;;
21677;SDS011;11000;50.360;7.582;2022-08-02T12:35:34;1.00;;;1.00;;
21677;SDS011;11000;50.360;7.582;2022-08-02T12:37:54;0.73;;;0.73;;
21677;SDS011;11000;50.360;7.582;2022-08-02T12:40:28;0.95;;;0.77;;
21677;SDS011;11000;50.360;7.582;2022-08-02T12:42:54;1.13;;;1.02;;
21677;SDS011;11000;50.360;7.582;2022-08-02T12:45:16;1.15;;;1.00;;
21677;SDS011;11000;50.360;7.582;2022-08-02T12:47:47;1.48;;;1.10;;
21677;SDS011;11000;50.360;7.582;2022-08-02T12:50:09;0.98;;;0.98;;
21677;SDS011;11000;50.360;7.582;2022-08-02T12:52:31;1.00;;;0.90;;
21677;SDS011;11000;50.360;7.582;2022-08-02T12:54:52;1.73;;;1.00;;
21677;SDS011;11000;50.360;7.582;2022-08-02T12:57:13;1.08;;;0.77;;
21677;SDS011;11000;50.360;7.582;2022-08-02T12:59:36;1.88;;;1.23;;
21677;SDS011;11000;50.360;7.582;2022-08-02T13:02:01;1.20;;;1.20;;
21677;SDS011;11000;50.360;7.582;2022-08-02T13:04:26;1.23;;;1.13;;
21677;SDS011;11000;50.360;7.582;2022-08-02T13:06:47;1.95;;;1.00;;
21677;SDS011;11000;50.360;7.582;2022-08-02T13:09:11;1.20;;;0.88;;
21677;SDS011;11000;50.360;7.582;2022-08-02T13:11:33;1.50;;;0.80;;
21677;SDS011;11000;50.360;7.582;2022-08-02T13:13:53;0.90;;;0.90;;
21677;SDS011;11000;50.360;7.582;2022-08-02T13:16:14;1.38;;;1.00;;
21677;SDS011;11000;50.360;7.582;2022-08-02T13:18:35;1.92;;;1.00;;
21677;SDS011;11000;50.360;7.582;2022-08-02T13:20:55;3.08;;;1.10;;
21677;SDS011;11000;50.360;7.582;2022-08-02T13:23:16;1.85;;;1.15;;
21677;SDS011;11000;50.360;7.582;2022-08-02T13:25:37;2.53;;;1.15;;
21677;SDS011;11000;50.360;7.582;2022-08-02T13:28:00;1.42;;;1.33;;
21677;SDS011;11000;50.360;7.582;2022-08-02T13:30:20;2.58;;;1.10;;
21677;SDS011;11000;50.360;7.582;2022-08-02T13:32:41;3.25;;;1.30;;
21677;SDS011;11000;50.360;7.582;2022-08-02T13:35:01;1.38;;;0.90;;
21677;SDS011;11000;50.360;7.582;2022-08-02T13:37:22;1.10;;;1.08;;
21677;SDS011;11000;50.360;7.582;2022-08-02T13:39:43;0.90;;;0.90;;
21677;SDS011;11000;50.360;7.582;2022-08-02T13:42:04;1.00;;;1.00;;
21677;SDS011;11000;50.360;7.582;2022-08-02T13:44:25;1.55;;;1.30;;
21677;SDS011;11000;50.360;7.582;2022-08-02T13:46:46;1.00;;;1.00;;
21677;SDS011;11000;50.360;7.582;2022-08-02T13:49:06;1.20;;;1.10;;
21677;SDS011;11000;50.360;7.582;2022-08-02T13:51:27;2.95;;;1.60;;
21677;SDS011;11000;50.360;7.582;2022-08-02T13:53:47;1.25;;;1.15;;
21677;SDS011;11000;50.360;7.582;2022-08-02T13:56:08;5.43;;;1.35;;
21677;SDS011;11000;50.360;7.582;2022-08-02T13:58:28;1.40;;;1.20;;
21677;SDS011;11000;50.360;7.582;2022-08-02T14:00:49;2.75;;;1.40;;
21677;SDS011;11000;50.360;7.582;2022-08-02T14:03:10;2.78;;;1.17;;
21677;SDS011;11000;50.360;7.582;2022-08-02T14:05:30;1.10;;;1.10;;
21677;SDS011;11000;50.360;7.582;2022-08-02T14:07:51;4.78;;;1.30;;
21677;SDS011;11000;50.360;7.582;2022-08-02T14:10:11;2.72;;;1.30;;
21677;SDS011;11000;50.360;7.582;2022-08-02T14:12:32;3.13;;;1.35;;
21677;SDS011;11000;50.360;7.582;2022-08-02T14:14:52;2.75;;;1.35;;
21677;SDS011;11000;50.360;7.582;2022-08-02T14:17:13;1.92;;;1.13;;
21677;SDS011;11000;50.360;7.582;2022-08-02T14:19:34;2.25;;;1.17;;
21677;SDS011;11000;50.360;7.582;2022-08-02T14:21:55;1.40;;;1.23;;
21677;SDS011;11000;50.360;7.582;2022-08-02T14:24:18;2.80;;;1.45;;
21677;SDS011;11000;50.360;7.582;2022-08-02T14:26:39;1.33;;;1.23;;
21677;SDS011;11000;50.360;7.582;2022-08-02T14:29:00;2.73;;;1.53;;
21677;SDS011;11000;50.360;7.582;2022-08-02T14:31:20;1.60;;;1.50;;
21677;SDS011;11000;50.360;7.582;2022-08-02T14:33:41;1.67;;;1.57;;
21677;SDS011;11000;50.360;7.582;2022-08-02T14:36:01;1.10;;;1.05;;
21677;SDS011;11000;50.360;7.582;2022-08-02T14:38:22;1.27;;;1.17;;
21677;SDS011;11000;50.360;7.582;2022-08-02T14:40:44;1.00;;;1.00;;
21677;SDS011;11000;50.360;7.582;2022-08-02T14:43:05;3.58;;;1.30;;
21677;SDS011;11000;50.360;7.582;2022-08-02T14:45:25;1.20;;;1.10;;